createdAt,value
2023-04-21T00:01:14.936Z,6.45
2023-04-21T00:03:48.144Z,7.10
2023-04-21T00:06:22.960Z,7.15
2023-04-21T00:08:53.080Z,6.80
2023-04-21T00:11:22.750Z,6.20
2023-04-21T00:13:52.440Z,6.20
2023-04-21T00:16:22.338Z,6.05
2023-04-21T00:18:54.652Z,6.03
2023-04-21T00:21:24.342Z,5.90
2023-04-21T00:23:54.021Z,6.65
2023-04-21T00:26:23.847Z,5.78
2023-04-21T00:28:53.940Z,7.32
2023-04-21T00:31:23.705Z,7.25
2023-04-21T00:33:56.464Z,5.43
2023-04-21T00:36:28.600Z,5.60
2023-04-21T00:38:58.405Z,7.38
2023-04-21T00:41:28.264Z,8.15
2023-04-21T00:44:06.436Z,8.30
2023-04-21T00:46:36.576Z,8.20
2023-04-21T00:49:10.155Z,8.07
2023-04-21T00:51:40.602Z,6.35
2023-04-21T00:54:10.987Z,6.90
2023-04-21T00:56:40.794Z,6.38
2023-04-21T00:59:11.007Z,7.15
2023-04-21T01:01:41.851Z,5.25
2023-04-21T01:04:14.236Z,6.47
2023-04-21T01:06:44.524Z,6.45
2023-04-21T01:09:15.201Z,6.35
2023-04-21T01:11:44.893Z,6.47
2023-04-21T01:14:14.558Z,4.80
2023-04-21T01:16:45.151Z,4.82
2023-04-21T01:19:17.635Z,5.10
2023-04-21T01:21:50.126Z,5.60
2023-04-21T01:24:19.847Z,6.55
2023-04-21T01:26:50.099Z,5.72
2023-04-21T01:29:20.674Z,6.80
2023-04-21T01:31:50.631Z,5.80
2023-04-21T01:34:20.495Z,5.45
2023-04-21T01:36:55.624Z,5.32
2023-04-21T01:39:26.286Z,5.22
2023-04-21T01:41:58.048Z,4.95
2023-04-21T01:44:28.138Z,4.72
2023-04-21T01:46:57.948Z,5.55
2023-04-21T01:49:27.645Z,4.50
2023-04-21T01:51:59.986Z,4.78
2023-04-21T01:54:29.755Z,4.60
2023-04-21T01:56:59.595Z,5.00
2023-04-21T01:59:29.394Z,5.05
2023-04-21T02:01:59.161Z,5.75
2023-04-21T02:04:29.053Z,7.20
2023-04-21T02:07:01.547Z,6.72
2023-04-21T02:09:31.406Z,6.10
2023-04-21T02:12:02.073Z,7.03
2023-04-21T02:14:31.806Z,6.18
2023-04-21T02:17:03.848Z,7.10
2023-04-21T02:19:33.546Z,5.93
2023-04-21T02:22:07.147Z,7.63
2023-04-21T02:24:36.902Z,5.90
2023-04-21T02:27:06.629Z,5.55
2023-04-21T02:29:36.359Z,5.88
2023-04-21T02:34:42.255Z,5.22
2023-04-21T02:37:14.556Z,5.18
2023-04-21T02:39:45.064Z,5.57
2023-04-21T02:42:14.759Z,4.85
2023-04-21T02:44:45.114Z,5.28
2023-04-21T02:47:14.900Z,5.18
2023-04-21T02:49:45.246Z,4.90
2023-04-21T02:52:18.013Z,5.72
2023-04-21T02:54:47.699Z,5.47
2023-04-21T02:57:17.348Z,6.18
2023-04-21T02:59:47.045Z,5.32
2023-04-21T03:02:16.859Z,6.20
2023-04-21T03:04:46.586Z,5.55
2023-04-21T03:07:18.846Z,5.30
2023-04-21T03:09:48.499Z,5.22
2023-04-21T03:12:18.201Z,5.45
2023-04-21T03:14:47.990Z,6.15
2023-04-21T03:17:17.752Z,5.15
2023-04-21T03:19:47.425Z,4.30
2023-04-21T03:22:19.802Z,4.97
2023-04-21T03:24:49.478Z,5.68
2023-04-21T03:27:19.309Z,4.80
2023-04-21T03:29:49.392Z,5.53
2023-04-21T03:32:19.208Z,6.20
2023-04-21T03:34:50.431Z,4.55
2023-04-21T03:37:24.162Z,6.10
2023-04-21T03:39:53.858Z,3.63
2023-04-21T03:42:23.598Z,5.80
2023-04-21T03:44:53.300Z,4.72
2023-04-21T03:47:23.060Z,5.07
2023-04-21T03:49:52.760Z,5.03
2023-04-21T03:52:25.084Z,6.35
2023-04-21T03:54:54.755Z,5.45
2023-04-21T03:57:24.465Z,5.13
2023-04-21T03:59:54.289Z,6.57
2023-04-21T04:02:24.109Z,5.07
2023-04-21T04:04:53.951Z,5.60
2023-04-21T04:07:26.382Z,4.80
2023-04-21T04:09:56.067Z,5.68
2023-04-21T04:12:25.991Z,6.43
2023-04-21T04:14:55.688Z,6.72
2023-04-21T04:17:25.900Z,5.88
2023-04-21T04:19:55.635Z,6.30
2023-04-21T04:22:27.945Z,5.55
2023-04-21T04:24:59.959Z,6.32
2023-04-21T04:27:30.283Z,6.60
2023-04-21T04:30:00.571Z,7.03
2023-04-21T04:32:30.589Z,7.05
2023-04-21T04:35:00.327Z,6.50
2023-04-21T04:37:34.673Z,5.07
2023-04-21T04:40:05.837Z,5.82
2023-04-21T04:42:36.957Z,5.63
2023-04-21T04:45:08.412Z,6.22
2023-04-21T04:47:38.288Z,5.90
2023-04-21T04:50:08.461Z,5.75
2023-04-21T04:52:40.910Z,6.40
2023-04-21T04:55:11.208Z,5.93
2023-04-21T04:57:40.922Z,7.38
2023-04-21T05:00:11.871Z,6.82
2023-04-21T05:02:41.758Z,6.90
2023-04-21T05:05:11.705Z,7.07
2023-04-21T05:07:44.080Z,6.65
2023-04-21T05:10:13.743Z,7.00
2023-04-21T05:12:43.412Z,6.13
2023-04-21T05:15:13.291Z,6.00
2023-04-21T05:17:43.044Z,6.95
2023-04-21T05:20:12.947Z,6.57
2023-04-21T05:22:45.279Z,7.72
2023-04-21T05:25:16.128Z,8.85
2023-04-21T05:27:46.199Z,7.13
2023-04-21T05:30:15.971Z,9.70
2023-04-21T05:32:45.687Z,12.95
2023-04-21T05:35:15.429Z,13.77
2023-04-21T05:37:47.746Z,14.60
2023-04-21T05:40:17.456Z,12.38
2023-04-21T05:42:47.122Z,11.73
2023-04-21T05:45:16.914Z,13.27
2023-04-21T05:47:46.752Z,11.70
2023-04-21T05:50:17.288Z,11.00
2023-04-21T05:52:49.574Z,11.40
2023-04-21T05:55:19.287Z,10.40
2023-04-21T05:57:48.977Z,8.80
2023-04-21T06:00:19.362Z,11.75
2023-04-21T06:02:49.125Z,11.00
2023-04-21T06:05:18.986Z,10.63
2023-04-21T06:07:51.308Z,10.90
2023-04-21T06:10:21.337Z,11.55
2023-04-21T06:12:51.197Z,11.43
2023-04-21T06:15:21.031Z,12.35
2023-04-21T06:17:50.799Z,11.75
2023-04-21T06:20:20.662Z,10.15
2023-04-21T06:22:52.973Z,12.27
2023-04-21T06:25:22.904Z,11.73
2023-04-21T06:27:52.657Z,10.20
2023-04-21T06:30:22.365Z,10.57
2023-04-21T06:32:52.116Z,9.82
2023-04-21T06:35:22.139Z,9.95
2023-04-21T06:37:54.477Z,10.77
2023-04-21T06:40:24.152Z,11.82
2023-04-21T06:42:53.823Z,11.18
2023-04-21T06:45:23.591Z,11.98
2023-04-21T06:47:53.327Z,9.77
2023-04-21T06:50:23.027Z,9.75
2023-04-21T06:52:55.430Z,11.35
2023-04-21T06:55:25.554Z,8.82
2023-04-21T06:57:55.471Z,11.15
2023-04-21T07:00:25.172Z,10.90
2023-04-21T07:02:54.927Z,10.43
2023-04-21T07:05:24.718Z,12.10
2023-04-21T07:08:00.028Z,9.70
2023-04-21T07:10:29.851Z,10.88
2023-04-21T07:12:59.562Z,11.70
2023-04-21T07:15:29.245Z,10.55
2023-04-21T07:17:59.121Z,11.77
2023-04-21T07:20:28.811Z,9.77
2023-04-21T07:23:01.103Z,10.77
2023-04-21T07:25:30.857Z,10.73
2023-04-21T07:28:00.599Z,10.10
2023-04-21T07:30:30.356Z,9.52
2023-04-21T07:33:00.812Z,10.52
2023-04-21T07:35:31.199Z,9.43
2023-04-21T07:38:03.502Z,9.15
2023-04-21T07:40:33.538Z,10.30
2023-04-21T07:43:03.477Z,9.57
2023-04-21T07:45:33.230Z,10.73
2023-04-21T07:48:03.065Z,9.75
2023-04-21T07:50:32.848Z,9.32
2023-04-21T07:53:05.526Z,10.30
2023-04-21T07:55:37.408Z,9.48
2023-04-21T07:58:07.667Z,10.30
2023-04-21T08:00:37.476Z,8.75
2023-04-21T08:03:07.369Z,10.73
2023-04-21T08:05:40.975Z,10.93
2023-04-21T08:08:13.981Z,11.57
2023-04-21T08:10:43.952Z,10.18
2023-04-21T08:13:13.648Z,9.45
2023-04-21T08:15:43.399Z,10.52
2023-04-21T08:18:13.230Z,10.38
2023-04-21T08:20:42.924Z,10.55
2023-04-21T08:23:15.246Z,10.85
2023-04-21T08:25:45.226Z,10.18
2023-04-21T08:28:15.795Z,9.45
2023-04-21T08:30:45.819Z,8.27
2023-04-21T08:33:16.407Z,10.60
2023-04-21T08:35:59.280Z,10.02
2023-04-21T08:38:36.570Z,8.82
2023-04-21T08:41:06.674Z,13.23
2023-04-21T08:43:36.337Z,7.88
2023-04-21T08:46:09.163Z,8.93
2023-04-21T08:48:39.629Z,7.65
2023-04-21T08:51:10.558Z,10.60
2023-04-21T08:53:43.826Z,8.10
2023-04-21T08:56:13.523Z,8.27
2023-04-21T08:58:43.281Z,7.72
2023-04-21T09:01:13.018Z,9.90
2023-04-21T09:03:42.887Z,6.88
2023-04-21T09:06:13.634Z,6.70
2023-04-21T09:08:56.222Z,7.72
2023-04-21T09:11:26.446Z,9.05
2023-04-21T09:13:59.852Z,8.35
2023-04-21T09:16:33.318Z,10.07
2023-04-21T09:19:03.456Z,9.18
2023-04-21T09:21:33.724Z,9.77
2023-04-21T09:24:08.315Z,9.32
2023-04-21T09:26:38.083Z,9.52
2023-04-21T09:29:09.395Z,9.38
2023-04-21T09:31:39.357Z,9.40
2023-04-21T09:34:19.845Z,8.95
2023-04-21T09:36:50.197Z,8.35
2023-04-21T09:39:40.659Z,8.60
2023-04-21T09:42:15.835Z,7.97
2023-04-21T09:44:53.309Z,7.10
2023-04-21T09:47:32.132Z,8.15
2023-04-21T09:50:02.760Z,6.60
2023-04-21T09:52:33.806Z,4.43
2023-04-21T09:55:07.126Z,5.32
2023-04-21T09:57:39.987Z,4.63
2023-04-21T10:00:12.081Z,6.80
2023-04-21T10:02:46.943Z,5.45
2023-04-21T10:05:16.795Z,5.53
2023-04-21T10:07:46.953Z,6.25
2023-04-21T10:10:21.440Z,5.97
2023-04-21T10:12:51.427Z,5.38
2023-04-21T10:15:34.551Z,5.57
2023-04-21T10:18:17.199Z,5.10
2023-04-21T10:20:59.414Z,5.80
2023-04-21T10:23:33.251Z,5.53
2023-04-21T10:26:09.807Z,6.30
2023-04-21T10:28:43.109Z,5.50
2023-04-21T10:31:23.137Z,6.55
2023-04-21T10:34:07.961Z,5.70
2023-04-21T10:36:38.050Z,6.07
2023-04-21T10:39:08.053Z,7.43
2023-04-21T10:41:40.361Z,5.65
2023-04-21T10:44:15.030Z,6.32
2023-04-21T10:46:48.795Z,6.10
2023-04-21T10:49:24.412Z,5.40
2023-04-21T10:52:06.928Z,6.28
2023-04-21T10:54:42.236Z,5.97
2023-04-21T10:57:15.154Z,5.90
2023-04-21T10:59:45.224Z,5.35
2023-04-21T11:02:15.858Z,5.85
2023-04-21T11:04:49.092Z,5.95
2023-04-21T11:07:19.729Z,6.07
2023-04-21T11:09:51.125Z,5.53
2023-04-21T11:12:23.388Z,5.10
2023-04-21T11:14:53.116Z,4.95
2023-04-21T11:17:24.340Z,4.68
2023-04-21T11:19:55.522Z,5.15
2023-04-21T11:22:26.185Z,5.25
2023-04-21T11:24:56.981Z,4.85
2023-04-21T11:36:56.800Z,4.15
2023-04-21T11:39:26.577Z,4.82
2023-04-21T11:41:56.878Z,5.20
2023-04-21T11:44:36.797Z,4.47
2023-04-21T11:47:15.834Z,9.02
2023-04-21T11:52:22.712Z,11.20
2023-04-21T11:54:54.380Z,7.05
2023-04-21T11:57:25.323Z,5.00
2023-04-21T11:59:55.066Z,7.82
2023-04-21T12:02:26.492Z,4.78
2023-04-21T12:05:03.729Z,5.35
2023-04-21T12:07:37.409Z,5.25
2023-04-21T12:10:12.029Z,7.68
2023-04-21T12:12:42.235Z,5.82
2023-04-21T12:15:13.072Z,6.25
2023-04-21T12:17:42.944Z,5.00
2023-04-21T12:20:12.981Z,4.78
2023-04-21T12:22:45.281Z,4.20
2023-04-21T12:25:14.989Z,4.95
2023-04-21T12:27:51.358Z,4.55
2023-04-21T12:30:21.309Z,5.05
2023-04-21T12:32:52.525Z,8.00
2023-04-21T12:35:22.273Z,5.35
2023-04-21T12:37:54.581Z,4.50
2023-04-21T12:40:24.333Z,5.20
2023-04-21T12:42:54.022Z,4.78
2023-04-21T12:45:23.722Z,4.90
2023-04-21T12:47:53.467Z,4.63
2023-04-21T12:50:23.378Z,4.50
2023-04-21T12:52:55.634Z,4.75
2023-04-21T12:55:25.380Z,7.18
2023-04-21T12:57:55.507Z,5.57
2023-04-21T13:00:25.196Z,5.00
2023-04-21T13:02:55.042Z,4.63
2023-04-21T13:05:24.886Z,5.05
2023-04-21T13:07:57.196Z,5.90
2023-04-21T13:10:26.888Z,6.93
2023-04-21T13:12:56.553Z,5.10
2023-04-21T13:15:26.212Z,4.60
2023-04-21T13:17:55.967Z,4.60
2023-04-21T13:20:25.856Z,16.08
2023-04-21T13:22:58.180Z,5.47
2023-04-21T13:25:27.967Z,5.70
2023-04-21T13:27:58.429Z,8.25
2023-04-21T13:30:28.132Z,6.22
2023-04-21T13:32:57.835Z,5.60
2023-04-21T13:35:28.083Z,6.72
2023-04-21T13:38:00.375Z,8.00
2023-04-21T13:40:30.136Z,6.88
2023-04-21T13:42:59.992Z,5.72
2023-04-21T13:45:29.872Z,6.13
2023-04-21T13:47:59.577Z,4.88
2023-04-21T13:50:29.347Z,4.97
2023-04-21T13:53:01.624Z,4.63
2023-04-21T13:55:31.497Z,5.20
2023-04-21T13:58:01.972Z,4.95
2023-04-21T14:00:31.662Z,5.35
2023-04-21T14:03:01.795Z,262.50
2023-04-21T14:05:31.849Z,8.38
2023-04-21T14:08:04.405Z,4.95
2023-04-21T14:10:34.150Z,5.72
2023-04-21T14:13:04.319Z,72.47
2023-04-21T14:15:34.052Z,6.60
2023-04-21T14:18:03.775Z,5.22
2023-04-21T14:20:33.541Z,5.68
2023-04-21T14:23:05.955Z,444.40
2023-04-21T14:25:35.704Z,223.70
2023-04-21T14:28:07.483Z,118.78
2023-04-21T14:30:38.095Z,559.47
2023-04-21T14:33:08.151Z,518.72
2023-04-21T14:35:39.228Z,640.15
2023-04-21T14:38:11.577Z,183.02
2023-04-21T14:40:41.260Z,80.28
2023-04-21T14:43:11.672Z,63.63
2023-04-21T14:45:41.556Z,31.08
2023-04-21T14:48:12.011Z,38.08
2023-04-21T14:50:41.746Z,20.10
2023-04-21T14:53:14.080Z,28.55
2023-04-21T14:55:43.805Z,7.07
2023-04-21T14:58:13.476Z,7.05
2023-04-21T15:00:43.126Z,15.75
2023-04-21T15:03:13.064Z,149.05
2023-04-21T15:05:42.917Z,110.80
2023-04-21T15:08:18.283Z,121.25
2023-04-21T15:10:48.113Z,30.70
2023-04-21T15:13:17.930Z,10.20
2023-04-21T15:15:47.613Z,13.32
2023-04-21T15:18:17.383Z,9.27
2023-04-21T15:20:47.744Z,20.92
2023-04-21T15:23:20.026Z,9.13
2023-04-21T15:25:50.004Z,153.50
2023-04-21T15:28:19.662Z,223.23
2023-04-21T15:30:49.471Z,40.85
2023-04-21T15:33:19.384Z,11.80
2023-04-21T15:35:49.319Z,40.97
2023-04-21T15:38:21.579Z,17.50
2023-04-21T15:41:00.604Z,6.90
2023-04-21T15:43:31.511Z,8.27
2023-04-21T15:46:01.210Z,7.88
2023-04-21T15:48:31.102Z,30.25
2023-04-21T15:51:00.924Z,81.90
2023-04-21T15:53:33.292Z,31.02
2023-04-21T15:56:03.030Z,10.43
2023-04-21T15:58:32.697Z,8.82
2023-04-21T16:01:02.564Z,5.57
2023-04-21T16:03:32.509Z,9.30
2023-04-21T16:06:02.620Z,8.73
2023-04-21T16:08:35.562Z,7.00
2023-04-21T16:11:05.473Z,7.53
2023-04-21T16:13:35.201Z,7.95
2023-04-21T16:16:04.959Z,11.40
2023-04-21T16:18:34.800Z,7.22
2023-04-21T16:21:04.607Z,6.40
2023-04-21T16:23:37.000Z,201.65
2023-04-21T16:26:09.287Z,77.60
2023-04-21T16:28:39.070Z,13.13
2023-04-21T16:31:09.007Z,28.98
2023-04-21T16:33:38.738Z,10.18
2023-04-21T16:36:08.751Z,46.15
2023-04-21T16:38:41.025Z,23.58
2023-04-21T16:41:12.846Z,44.38
2023-04-21T16:43:43.483Z,49.50
2023-04-21T16:46:13.297Z,32.33
2023-04-21T16:48:43.134Z,65.10
2023-04-21T16:51:12.915Z,17.75
2023-04-21T16:53:45.264Z,5.78
2023-04-21T16:56:15.024Z,5.90
2023-04-21T16:58:44.697Z,5.63
2023-04-21T17:01:14.448Z,5.80
2023-04-21T17:03:44.413Z,8.50
2023-04-21T17:06:17.563Z,6.70
2023-04-21T17:08:50.477Z,7.07
2023-04-21T17:11:20.168Z,6.80
2023-04-21T17:13:49.827Z,6.43
2023-04-21T17:16:19.579Z,7.00
2023-04-21T17:18:49.296Z,6.20
2023-04-21T17:21:18.998Z,7.05
2023-04-21T17:23:51.290Z,6.88
2023-04-21T17:26:21.302Z,6.25
2023-04-21T17:28:51.237Z,7.30
2023-04-21T17:31:21.060Z,8.02
2023-04-21T17:33:52.806Z,11.57
2023-04-21T17:36:22.603Z,19.52
2023-04-21T17:38:54.955Z,29.27
2023-04-21T17:41:24.616Z,19.63
2023-04-21T17:43:55.080Z,12.57
2023-04-21T17:46:25.536Z,11.80
2023-04-21T17:48:55.324Z,11.80
2023-04-21T17:51:24.987Z,16.42
2023-04-21T17:53:57.256Z,18.20
2023-04-21T17:56:26.982Z,22.10
2023-04-21T17:58:56.647Z,13.98
2023-04-21T18:01:26.405Z,19.55
2023-04-21T18:04:00.003Z,46.03
2023-04-21T18:06:30.552Z,55.33
2023-04-21T18:09:03.335Z,25.50
2023-04-21T18:11:32.999Z,53.67
2023-04-21T18:14:03.064Z,57.53
2023-04-21T18:16:32.817Z,25.30
2023-04-21T18:19:02.549Z,37.70
2023-04-21T18:21:32.520Z,26.17
2023-04-21T18:24:04.890Z,43.80
2023-04-21T18:26:34.590Z,48.80
2023-04-21T18:29:04.285Z,29.73
2023-04-21T18:31:34.577Z,29.50
2023-04-21T18:34:04.362Z,28.40
2023-04-21T18:36:35.187Z,28.40
2023-04-21T18:39:08.512Z,32.53
2023-04-21T18:41:38.200Z,41.22
2023-04-21T18:44:08.698Z,39.60
2023-04-21T18:46:38.489Z,43.15
2023-04-21T18:49:08.195Z,32.53
2023-04-21T18:51:38.063Z,30.10
2023-04-21T18:54:11.034Z,19.10
2023-04-21T18:56:40.740Z,34.03
2023-04-21T18:59:10.441Z,26.70
2023-04-21T19:01:41.465Z,144.98
2023-04-21T19:04:11.363Z,26.75
2023-04-21T19:06:41.365Z,98.10
2023-04-21T19:09:13.677Z,93.53
2023-04-21T19:11:43.476Z,54.67
2023-04-21T19:14:13.183Z,29.15
2023-04-21T19:16:42.964Z,28.15
2023-04-21T19:19:12.910Z,66.97
2023-04-21T19:21:42.590Z,116.45
2023-04-21T19:24:14.961Z,228.23
2023-04-21T19:26:44.669Z,216.27
2023-04-21T19:29:15.237Z,52.05
2023-04-21T19:31:44.980Z,30.40
2023-04-21T19:34:15.177Z,33.20
2023-04-21T19:36:45.500Z,59.72
2023-04-21T19:39:17.802Z,78.57
2023-04-21T19:41:47.481Z,64.90
2023-04-21T19:44:17.159Z,35.53
2023-04-21T19:46:46.876Z,54.03
2023-04-21T19:49:16.536Z,48.47
2023-04-21T19:51:46.250Z,49.92
2023-04-21T19:54:18.728Z,39.83
2023-04-21T19:56:48.690Z,45.65
2023-04-21T19:59:18.381Z,28.52
2023-04-21T20:01:48.183Z,41.00
2023-04-21T20:04:18.131Z,32.63
2023-04-21T20:06:48.023Z,10.10
2023-04-21T20:09:20.361Z,15.77
2023-04-21T20:11:50.145Z,77.07
2023-04-21T20:14:20.574Z,8.00
2023-04-21T20:16:50.274Z,10.98
2023-04-21T20:19:23.103Z,10.05
2023-04-21T20:21:52.910Z,16.40
2023-04-21T20:24:25.270Z,25.17
2023-04-21T20:26:54.972Z,24.90
2023-04-21T20:29:24.690Z,21.65
2023-04-21T20:31:54.362Z,21.60
2023-04-21T20:34:24.142Z,17.05
2023-04-21T20:36:54.685Z,15.40
2023-04-21T20:39:26.977Z,15.98
2023-04-21T20:42:12.005Z,14.82
2023-04-21T20:44:43.502Z,14.80
2023-04-21T20:47:13.709Z,15.13
2023-04-21T20:49:43.838Z,21.27
2023-04-21T20:52:13.582Z,23.50
2023-04-21T20:54:45.896Z,22.83
2023-04-21T20:57:15.723Z,13.95
2023-04-21T20:59:45.492Z,14.43
2023-04-21T21:02:15.281Z,14.50
2023-04-21T21:04:47.408Z,14.88
2023-04-21T21:07:17.203Z,14.93
2023-04-21T21:09:49.496Z,13.18
2023-04-21T21:12:19.153Z,12.18
2023-04-21T21:14:48.851Z,11.10
2023-04-21T21:17:18.673Z,10.55
2023-04-21T21:19:49.472Z,12.82
2023-04-21T21:22:19.192Z,9.88
2023-04-21T21:24:51.502Z,15.20
2023-04-21T21:27:30.977Z,9.70
2023-04-21T21:47:29.104Z,5.65
2023-04-21T21:49:59.321Z,9.00
2023-04-21T21:52:29.207Z,6.45
2023-04-21T21:54:58.980Z,6.75
2023-04-21T21:57:28.718Z,6.88
2023-04-21T22:00:00.631Z,6.68
2023-04-21T22:02:33.017Z,7.38
2023-04-21T22:05:04.614Z,7.50
2023-04-21T22:07:35.662Z,6.97
2023-04-21T22:10:05.435Z,5.53
2023-04-21T22:12:35.664Z,5.82
2023-04-21T22:15:06.912Z,5.75
2023-04-21T22:17:39.222Z,8.40
2023-04-21T22:20:12.193Z,11.43
2023-04-21T22:22:41.862Z,8.93
2023-04-21T22:25:12.250Z,9.60
2023-04-21T22:27:41.998Z,8.25
2023-04-21T22:30:12.250Z,9.32
2023-04-21T22:32:44.612Z,11.27
2023-04-21T22:35:14.293Z,11.95
2023-04-21T22:37:44.332Z,13.27
2023-04-21T22:40:14.193Z,11.98
2023-04-21T22:42:43.911Z,12.02
2023-04-21T22:45:14.317Z,8.63
2023-04-21T22:47:46.749Z,7.63
2023-04-21T22:50:16.433Z,8.07
2023-04-21T22:52:46.122Z,8.07
2023-04-21T22:55:15.883Z,7.30
2023-04-21T22:57:45.612Z,7.50
2023-04-21T23:00:15.729Z,7.15
2023-04-21T23:02:48.177Z,7.75
2023-04-21T23:05:17.944Z,5.30
2023-04-21T23:07:47.615Z,5.40
2023-04-21T23:10:17.299Z,6.47
2023-04-21T23:12:47.122Z,5.32
2023-04-21T23:15:16.837Z,6.43
2023-04-21T23:17:49.190Z,6.10
2023-04-21T23:20:19.049Z,8.00
2023-04-21T23:22:48.704Z,7.30
2023-04-21T23:25:18.455Z,9.75
2023-04-21T23:27:48.136Z,9.93
2023-04-21T23:30:17.930Z,9.65
2023-04-21T23:32:50.704Z,10.98
2023-04-21T23:35:20.987Z,7.95
2023-04-21T23:37:50.761Z,5.88
2023-04-21T23:40:21.639Z,6.75
2023-04-21T23:42:51.545Z,6.55
2023-04-21T23:45:21.421Z,8.13
2023-04-21T23:47:53.820Z,8.98
2023-04-21T23:50:23.629Z,6.32
2023-04-21T23:52:53.352Z,5.43
2023-04-21T23:55:23.129Z,5.82
2023-04-21T23:57:52.817Z,7.32
